»·PEaware :: N235B KSMX-KBFL

N235B :: KSMX-KBFL

FLIGHT INFORMATION

Flight Status: Arrived
Operator: Privately registered:
United States
More flights under this callsign
Pilot: Jason D. (29273)
Aircraft: CESSNA 172 SKYHAWK
(C172)
More flights by this aircraft type
Origin: KSMX Santa Maria Pub/Capt Hancock
United States
Destination: KBFL Meadows
United States
More flights between these airports :: More routes between these airports
Route: KSMX FELLOWS KBFL
File this flight plan on PilotEdge
Remarks: CAT-5
Altitude:
(Current/Filed)
3,500ft
Speed:
(Current/Filed)
110kts
Departed: 30-Apr-20 08:17 AM
Arrived: 30-Apr-20 09:02 AM
Distance/Time
Traveled:
76nm/0:45
Distance/Time
To Go:
Arrived

Flight Plot

Page will automatically refresh every two minutes.

Flight plan parsing failed; only flown route is shown


Map Options




Map Legend


Flown Route
Filed Route
Departure Airport
Arrival Airport
Navaid (VOR, NDB)
Fix

Horizontal Profiles

Position Reports

Time Latitude Longitude Heading Altitude Ground
Speed
30-Apr-20 08:02 34.897182 -120.446761 47 265ft 0kts
30-Apr-20 08:03 34.897182 -120.446761 47 265ft 0kts
30-Apr-20 08:04 34.897182 -120.446761 47 265ft 0kts
30-Apr-20 08:05 34.897182 -120.446761 47 265ft 0kts
30-Apr-20 08:06 34.897182 -120.446761 47 265ft 0kts
30-Apr-20 08:07 34.897182 -120.446761 47 265ft 0kts
30-Apr-20 08:08 34.897182 -120.446761 47 265ft 0kts
30-Apr-20 08:09 34.897182 -120.446761 47 265ft 0kts
30-Apr-20 08:10 34.897182 -120.446761 47 265ft 0kts
30-Apr-20 08:11 34.897182 -120.446761 47 265ft 0kts
30-Apr-20 08:12 34.897219 -120.446757 255 265ft 1kts
30-Apr-20 08:13 34.893510 -120.445225 179 265ft 0kts
30-Apr-20 08:14 34.893510 -120.445225 179 265ft 0kts
30-Apr-20 08:15 34.893440 -120.445227 183 265ft 6kts
30-Apr-20 08:16 34.896215 -120.450017 308 283ft 66kts
30-Apr-20 08:17 34.911750 -120.456310 50 1039ft 95kts
30-Apr-20 08:18 34.917684 -120.423839 70 1809ft 100kts
30-Apr-20 08:19 34.922939 -120.390265 67 2525ft 101kts
30-Apr-20 08:20 34.921941 -120.355035 94 3197ft 107kts
30-Apr-20 08:21 34.928795 -120.318679 62 3464ft 131kts
30-Apr-20 08:22 34.943427 -120.276465 54 3454ft 136kts
30-Apr-20 08:23 34.960280 -120.234076 55 3418ft 138kts
30-Apr-20 08:24 34.979970 -120.194779 55 3392ft 139kts
30-Apr-20 08:25 34.996366 -120.152247 48 3381ft 135kts
30-Apr-20 08:26 35.012071 -120.109473 65 3373ft 140kts
30-Apr-20 08:27 35.023960 -120.071366 52 4261ft 101kts
30-Apr-20 08:28 35.040515 -120.044477 28 4584ft 108kts
30-Apr-20 08:29 35.055613 -120.002939 61 4306ft 157kts
30-Apr-20 08:30 35.073409 -119.954997 45 3918ft 143kts
30-Apr-20 08:31 35.094440 -119.916270 43 3939ft 127kts
30-Apr-20 08:32 35.108206 -119.875795 63 3919ft 134kts
30-Apr-20 08:33 35.118588 -119.832181 79 4042ft 141kts
30-Apr-20 08:34 35.119842 -119.780623 105 3502ft 149kts
30-Apr-20 08:35 35.106177 -119.735640 117 3353ft 132kts
30-Apr-20 08:36 35.091425 -119.693131 105 3376ft 141kts
30-Apr-20 08:37 35.075884 -119.649519 115 3384ft 137kts
30-Apr-20 08:38 35.059047 -119.607522 117 3381ft 138kts
30-Apr-20 08:39 35.047784 -119.563297 94 3384ft 136kts
30-Apr-20 08:40 35.047258 -119.518372 61 3396ft 128kts
30-Apr-20 08:41 35.067315 -119.490050 347 3362ft 97kts
30-Apr-20 08:42 35.094720 -119.491433 348 3385ft 102kts
30-Apr-20 08:44 35.122715 -119.498703 342 3390ft 105kts
30-Apr-20 08:45 35.152429 -119.500544 351 3390ft 109kts
30-Apr-20 08:46 35.182011 -119.488773 22 3390ft 121kts
30-Apr-20 08:47 35.210134 -119.465700 21 3390ft 121kts
30-Apr-20 08:48 35.238287 -119.442813 21 3390ft 121kts
30-Apr-20 08:49 35.266459 -119.419904 21 3390ft 121kts
30-Apr-20 08:50 35.294618 -119.396972 22 3390ft 122kts
30-Apr-20 08:51 35.315914 -119.365602 57 3800ft 100kts
30-Apr-20 08:52 35.323265 -119.338533 60 4457ft 90kts
30-Apr-20 08:53 35.331382 -119.308731 50 4882ft 106kts
30-Apr-20 08:54 35.347344 -119.268243 56 4306ft 150kts
30-Apr-20 08:55 35.367319 -119.224059 57 3435ft 152kts
30-Apr-20 08:56 35.382446 -119.179395 62 2928ft 137kts
30-Apr-20 08:57 35.402406 -119.139169 48 2184ft 133kts
30-Apr-20 08:58 35.424606 -119.106136 68 1555ft 132kts
30-Apr-20 08:59 35.412906 -119.066452 131 1356ft 118kts
30-Apr-20 09:00 35.402668 -119.035327 37 928ft 85kts
30-Apr-20 09:00 35.415638 -119.038402 314 641ft 65kts
30-Apr-20 09:02 35.425171 -119.049237 313 469ft 30kts
30-Apr-20 09:03 35.426184 -119.051614 314 469ft 18kts
30-Apr-20 09:03 35.430148 -119.057141 236 473ft 18kts
30-Apr-20 09:04 35.429899 -119.057316 22 473ft 0kts
30-Apr-20 09:05 35.429899 -119.057316 22 473ft 0kts
30-Apr-20 09:06 35.429899 -119.057316 22 473ft 0kts
30-Apr-20 09:07 35.429899 -119.057316 22 473ft 0kts
30-Apr-20 09:08 35.429899 -119.057316 22 473ft 0kts
30-Apr-20 09:09 35.429899 -119.057316 22 473ft 0kts
30-Apr-20 09:10 35.429899 -119.057316 22 473ft 0kts

Navigation Log

Ident Type
Flight plan parsing failed, navigation log unavailable